createdAt,value
2019-01-11T00:01:35.764Z,102105.22
2019-01-11T00:04:08.086Z,102112.53
2019-01-11T00:06:39.697Z,102106.47
2019-01-11T00:09:12.501Z,102103.35
2019-01-11T00:11:43.901Z,102105.94
2019-01-11T00:14:14.464Z,102102.95
2019-01-11T00:16:45.280Z,102095.98
2019-01-11T00:19:19.026Z,102092.11
2019-01-11T00:21:53.752Z,102092.55
2019-01-11T00:24:24.379Z,102082.91
2019-01-11T00:26:57.967Z,102082.48
2019-01-11T00:29:28.410Z,102081.67
2019-01-11T00:31:58.901Z,102085.13
2019-01-11T00:34:31.401Z,102084.28
2019-01-11T00:37:01.960Z,102075.99
2019-01-11T00:39:32.639Z,102082.89
2019-01-11T00:42:03.273Z,102078.99
2019-01-11T00:44:33.849Z,102079.84
2019-01-11T00:47:04.672Z,102076.34
2019-01-11T00:49:35.055Z,102077.20
2019-01-11T00:52:07.268Z,102080.19
2019-01-11T00:54:37.785Z,102075.02
2019-01-11T00:57:08.617Z,102076.32
2019-01-11T00:59:39.322Z,102081.08
2019-01-11T01:02:11.631Z,102072.88
2019-01-11T01:04:44.187Z,102071.12
2019-01-11T01:07:14.806Z,102068.53
2019-01-11T01:09:46.051Z,102068.52
2019-01-11T01:12:16.549Z,102065.06
2019-01-11T01:14:47.180Z,102064.17
2019-01-11T01:17:18.829Z,102059.38
2019-01-11T01:19:49.979Z,102063.77
2019-01-11T01:22:20.829Z,102062.00
2019-01-11T01:24:51.316Z,102059.38
2019-01-11T01:27:21.760Z,102060.19
2019-01-11T01:29:52.350Z,102069.69
2019-01-11T01:32:22.698Z,102062.31
2019-01-11T01:34:53.175Z,102059.71
2019-01-11T01:37:23.737Z,102054.88
2019-01-11T01:39:54.361Z,102058.36
2019-01-11T01:42:25.198Z,102051.83
2019-01-11T01:44:58.407Z,102056.63
2019-01-11T01:47:29.685Z,102053.06
2019-01-11T01:50:00.037Z,102052.16
2019-01-11T01:52:33.600Z,102053.05
2019-01-11T01:55:04.752Z,102047.37
2019-01-11T01:57:35.129Z,102051.36
2019-01-11T02:00:07.859Z,102048.25
2019-01-11T02:02:38.274Z,102046.94
2019-01-11T02:05:09.487Z,102045.64
2019-01-11T02:07:39.915Z,102045.68
2019-01-11T02:10:14.089Z,102041.73
2019-01-11T02:12:47.865Z,102043.05
2019-01-11T02:15:20.379Z,102041.31
2019-01-11T02:17:50.829Z,102033.95
2019-01-11T02:20:21.297Z,102033.16
2019-01-11T02:22:52.273Z,102029.22
2019-01-11T02:25:22.968Z,102019.67
2019-01-11T02:27:53.486Z,102014.02
2019-01-11T02:30:26.251Z,102017.05
2019-01-11T02:32:59.678Z,102016.21
2019-01-11T02:35:30.320Z,102015.75
2019-01-11T02:38:01.024Z,102010.55
2019-01-11T02:40:31.957Z,102002.30
2019-01-11T02:43:02.394Z,101999.31
2019-01-11T02:45:33.116Z,101999.75
2019-01-11T02:48:03.503Z,101996.23
2019-01-11T02:50:34.743Z,101994.09
2019-01-11T02:53:05.152Z,101992.78
2019-01-11T02:55:35.589Z,101990.61
2019-01-11T02:58:05.926Z,101992.78
2019-01-11T03:00:38.457Z,101985.41
2019-01-11T03:03:08.806Z,101985.84
2019-01-11T03:05:39.683Z,101983.70
2019-01-11T03:08:10.032Z,101978.50
2019-01-11T03:10:40.501Z,101970.23
2019-01-11T03:13:10.869Z,101959.85
2019-01-11T03:15:41.288Z,101964.61
2019-01-11T03:18:11.579Z,101964.20
2019-01-11T03:20:42.054Z,101970.70
2019-01-11T03:23:12.401Z,101961.16
2019-01-11T03:25:42.789Z,101956.38
2019-01-11T03:28:13.203Z,101961.12
2019-01-11T03:30:43.697Z,101959.86
2019-01-11T03:33:15.197Z,101953.80
2019-01-11T03:35:46.587Z,101950.76
2019-01-11T03:38:17.007Z,101941.23
2019-01-11T03:40:47.338Z,101943.41
2019-01-11T03:43:17.895Z,101939.92
2019-01-11T03:45:48.253Z,101943.00
2019-01-11T03:48:21.553Z,101936.03
2019-01-11T03:50:51.974Z,101938.20
2019-01-11T03:53:22.641Z,101933.42
2019-01-11T03:55:53.083Z,101929.98
2019-01-11T03:58:23.475Z,101916.08
2019-01-11T04:00:53.800Z,101918.68
2019-01-11T04:03:27.280Z,101913.06
2019-01-11T04:05:57.648Z,101907.41
2019-01-11T04:08:28.073Z,101912.60
2019-01-11T04:10:58.513Z,101907.41
2019-01-11T04:13:30.595Z,101912.66
2019-01-11T04:16:01.150Z,101909.61
2019-01-11T04:18:36.067Z,101907.92
2019-01-11T04:21:06.452Z,101904.84
2019-01-11T04:23:37.003Z,101899.63
2019-01-11T04:26:07.451Z,101897.91
2019-01-11T04:28:37.926Z,101901.84
2019-01-11T04:31:08.306Z,101893.59
2019-01-11T04:33:38.772Z,101885.80
2019-01-11T04:36:09.149Z,101884.03
2019-01-11T04:38:39.883Z,101884.08
2019-01-11T04:41:10.571Z,101884.50
2019-01-11T04:43:41.069Z,101887.13
2019-01-11T04:46:11.586Z,101886.69
2019-01-11T04:48:44.636Z,101886.72
2019-01-11T04:51:15.009Z,101884.94
2019-01-11T04:53:45.427Z,101888.00
2019-01-11T04:56:16.058Z,101889.73
2019-01-11T04:58:46.452Z,101887.13
2019-01-11T05:01:16.822Z,101883.23
2019-01-11T05:03:47.249Z,101883.66
2019-01-11T05:06:17.720Z,101883.24
2019-01-11T05:08:48.109Z,101879.75
2019-01-11T05:11:18.475Z,101877.61
2019-01-11T05:13:54.865Z,101872.83
2019-01-11T05:16:25.271Z,101873.26
2019-01-11T05:19:10.848Z,101871.54
2019-01-11T05:21:41.405Z,101864.19
2019-01-11T05:24:11.734Z,101866.75
2019-01-11T05:26:42.168Z,101867.22
2019-01-11T05:29:12.536Z,101867.64
2019-01-11T05:31:44.000Z,101865.91
2019-01-11T05:34:16.351Z,101869.41
2019-01-11T05:36:46.770Z,101863.34
2019-01-11T05:39:17.085Z,101867.24
2019-01-11T05:41:50.761Z,101870.34
2019-01-11T05:44:21.596Z,101868.14
2019-01-11T05:46:52.399Z,101857.30
2019-01-11T05:49:23.136Z,101863.82
2019-01-11T05:51:55.601Z,101863.81
2019-01-11T05:54:33.258Z,101862.92
2019-01-11T05:57:05.340Z,101864.27
2019-01-11T05:59:42.237Z,101867.28
2019-01-11T06:02:12.821Z,101862.96
2019-01-11T06:04:47.788Z,101862.08
2019-01-11T06:07:22.190Z,101862.53
2019-01-11T06:09:53.169Z,101865.55
2019-01-11T06:12:26.971Z,101856.44
2019-01-11T06:14:58.461Z,101852.12
2019-01-11T06:17:28.842Z,101855.16
2019-01-11T06:19:59.211Z,101857.33
2019-01-11T06:22:29.633Z,101857.77
2019-01-11T06:25:14.752Z,101863.44
2019-01-11T06:27:45.244Z,101859.53
2019-01-11T06:30:15.770Z,101860.37
2019-01-11T06:32:46.520Z,101865.59
2019-01-11T06:35:17.335Z,101868.66
2019-01-11T06:37:47.857Z,101873.87
2019-01-11T06:40:18.421Z,101866.06
2019-01-11T06:42:49.170Z,101859.55
2019-01-11T06:45:20.315Z,101864.30
2019-01-11T06:47:50.960Z,101852.57
2019-01-11T06:50:21.992Z,101859.97
2019-01-11T06:52:53.956Z,101863.00
2019-01-11T06:55:24.403Z,101862.16
2019-01-11T06:57:54.837Z,101867.37
2019-01-11T07:00:28.009Z,101870.42
2019-01-11T07:02:58.511Z,101864.36
2019-01-11T07:05:29.119Z,101867.44
2019-01-11T07:07:59.839Z,101860.89
2019-01-11T07:10:30.240Z,101867.41
2019-01-11T07:13:00.687Z,101862.19
2019-01-11T07:15:32.079Z,101859.16
2019-01-11T07:18:02.588Z,101863.53
2019-01-11T07:20:33.023Z,101865.27
2019-01-11T07:23:03.384Z,101864.37
2019-01-11T07:25:33.764Z,101868.29
2019-01-11T07:28:04.119Z,101872.66
2019-01-11T07:30:54.653Z,101872.20
2019-01-11T07:33:25.934Z,101879.61
2019-01-11T07:36:07.813Z,101880.91
2019-01-11T07:38:39.793Z,101877.00
2019-01-11T07:41:10.162Z,101880.91
2019-01-11T07:43:40.569Z,101886.16
2019-01-11T07:46:10.980Z,101883.09
2019-01-11T07:48:41.348Z,101882.22
2019-01-11T07:51:12.005Z,101883.09
2019-01-11T07:53:42.381Z,101882.67
2019-01-11T07:56:12.877Z,101877.00
2019-01-11T07:58:43.437Z,101876.58
2019-01-11T08:01:13.691Z,101874.39
2019-01-11T08:03:44.323Z,101872.66
2019-01-11T08:06:14.724Z,101870.93
2019-01-11T08:08:48.067Z,101865.27
2019-01-11T08:11:18.517Z,101860.91
2019-01-11T08:13:49.246Z,101855.28
2019-01-11T08:16:19.780Z,101859.61
2019-01-11T08:18:51.536Z,101867.02
2019-01-11T08:21:22.054Z,101867.02
2019-01-11T08:23:52.668Z,101871.38
2019-01-11T08:26:25.047Z,101864.85
2019-01-11T08:28:55.802Z,101860.94
2019-01-11T08:31:26.118Z,101853.10
2019-01-11T08:33:57.162Z,101856.14
2019-01-11T08:36:29.939Z,101856.14
2019-01-11T08:39:00.368Z,101857.03
2019-01-11T08:41:31.183Z,101856.57
2019-01-11T08:44:01.800Z,101867.44
2019-01-11T08:46:32.273Z,101870.07
2019-01-11T08:49:02.645Z,101875.29
2019-01-11T08:51:35.257Z,101883.55
2019-01-11T08:54:08.213Z,101880.92
2019-01-11T08:56:38.737Z,101875.70
2019-01-11T08:59:09.454Z,101880.04
2019-01-11T09:01:39.797Z,101881.34
2019-01-11T09:04:10.225Z,101869.59
2019-01-11T09:06:40.716Z,101873.53
2019-01-11T09:09:13.260Z,101876.14
2019-01-11T09:11:43.651Z,101870.92
2019-01-11T09:14:33.017Z,101872.64
2019-01-11T09:17:03.384Z,101872.20
2019-01-11T09:19:33.850Z,101877.42
2019-01-11T09:22:06.491Z,101870.44
2019-01-11T09:24:37.065Z,101871.30
2019-01-11T09:27:07.680Z,101876.54
2019-01-11T09:29:41.006Z,101879.98
2019-01-11T09:32:11.456Z,101883.06
2019-01-11T09:34:41.822Z,101882.59
2019-01-11T09:37:12.263Z,101881.27
2019-01-11T09:39:42.692Z,101877.81
2019-01-11T09:42:14.228Z,101879.11
2019-01-11T09:44:44.841Z,101883.02
2019-01-11T09:47:15.178Z,101878.20
2019-01-11T09:49:45.588Z,101886.03
2019-01-11T09:52:16.251Z,101887.36
2019-01-11T09:54:46.648Z,101889.95
2019-01-11T09:57:17.420Z,101888.22
2019-01-11T09:59:47.783Z,101896.94
2019-01-11T10:02:35.190Z,101894.77
2019-01-11T10:05:07.467Z,101884.30
2019-01-11T10:07:40.142Z,101894.31
2019-01-11T10:10:20.505Z,101889.47
2019-01-11T10:12:52.477Z,101885.56
2019-01-11T10:15:22.903Z,101882.53
2019-01-11T10:17:53.386Z,101886.84
2019-01-11T10:20:24.174Z,101880.31
2019-01-11T10:22:54.715Z,101875.50
2019-01-11T10:25:25.257Z,101873.71
2019-01-11T10:27:55.723Z,101866.73
2019-01-11T10:30:26.878Z,101864.98
2019-01-11T10:32:57.476Z,101862.81
2019-01-11T10:35:28.209Z,101866.66
2019-01-11T10:37:58.979Z,101870.13
2019-01-11T10:40:29.649Z,101875.75
2019-01-11T10:43:00.757Z,101871.83
2019-01-11T10:45:31.179Z,101872.69
2019-01-11T10:48:01.659Z,101860.87
2019-01-11T10:50:32.098Z,101863.50
2019-01-11T10:53:02.539Z,101860.84
2019-01-11T10:55:33.742Z,101859.55
2019-01-11T10:58:04.446Z,101861.73
2019-01-11T11:00:35.603Z,101858.62
2019-01-11T11:03:05.996Z,101852.52
2019-01-11T11:05:36.607Z,101850.31
2019-01-11T11:08:07.044Z,101856.84
2019-01-11T11:10:37.437Z,101855.05
2019-01-11T11:13:07.919Z,101858.94
2019-01-11T11:15:40.548Z,101857.25
2019-01-11T11:18:10.941Z,101855.94
2019-01-11T11:20:44.203Z,101855.91
2019-01-11T11:23:19.993Z,101845.41
2019-01-11T11:25:51.574Z,101839.75
2019-01-11T11:28:22.026Z,101847.61
2019-01-11T11:30:52.754Z,101840.98
2019-01-11T11:33:23.296Z,101837.92
2019-01-11T11:35:53.841Z,101843.16
2019-01-11T11:38:24.248Z,101838.72
2019-01-11T11:40:54.951Z,101837.38
2019-01-11T11:43:28.500Z,101833.86
2019-01-11T11:45:59.006Z,101834.69
2019-01-11T11:48:30.960Z,101834.66
2019-01-11T11:51:03.469Z,101828.52
2019-01-11T11:53:34.584Z,101830.70
2019-01-11T11:56:04.986Z,101825.00
2019-01-11T11:58:35.585Z,101818.47
2019-01-11T12:01:07.987Z,101817.16
2019-01-11T12:03:39.016Z,101820.64
2019-01-11T12:06:09.593Z,101809.73
2019-01-11T12:08:42.958Z,101812.34
2019-01-11T12:11:14.601Z,101806.17
2019-01-11T12:13:45.552Z,101802.68
2019-01-11T12:16:18.839Z,101801.80
2019-01-11T12:18:51.123Z,101806.56
2019-01-11T12:21:23.329Z,101796.08
2019-01-11T12:23:53.830Z,101795.20
2019-01-11T12:26:24.703Z,101796.83
2019-01-11T12:28:58.188Z,101783.81
2019-01-11T12:31:32.219Z,101784.64
2019-01-11T12:34:02.593Z,101773.67
2019-01-11T12:36:33.180Z,101775.05
2019-01-11T12:39:04.914Z,101768.09
2019-01-11T12:41:35.993Z,101768.98
2019-01-11T12:44:06.549Z,101770.25
2019-01-11T12:46:39.695Z,101767.20
2019-01-11T12:49:10.467Z,101767.12
2019-01-11T12:51:42.485Z,101761.81
2019-01-11T12:54:14.691Z,101759.17
2019-01-11T12:56:45.748Z,101752.27
2019-01-11T12:59:16.320Z,101754.39
2019-01-11T13:01:46.669Z,101753.09
2019-01-11T13:04:18.540Z,101755.70
2019-01-11T13:06:50.181Z,101756.55
2019-01-11T13:09:21.814Z,101760.03
2019-01-11T13:11:53.775Z,101754.31
2019-01-11T13:14:24.357Z,101755.63
2019-01-11T13:16:55.603Z,101752.07
2019-01-11T13:19:26.152Z,101747.67
2019-01-11T13:22:00.513Z,101743.28
2019-01-11T13:24:29.437Z,101737.12
2019-01-11T13:27:00.294Z,101742.32
2019-01-11T13:29:32.810Z,101741.42
2019-01-11T13:32:03.163Z,101738.34
2019-01-11T13:34:33.528Z,101732.16
2019-01-11T13:37:03.952Z,101732.97
2019-01-11T13:39:36.097Z,101730.35
2019-01-11T13:42:06.688Z,101727.66
2019-01-11T13:44:37.106Z,101727.28
2019-01-11T13:47:07.947Z,101725.05
2019-01-11T13:49:38.388Z,101728.84
2019-01-11T13:52:08.761Z,101724.96
2019-01-11T13:54:39.192Z,101727.92
2019-01-11T13:57:09.557Z,101725.71
2019-01-11T13:59:41.681Z,101722.22
2019-01-11T14:02:12.576Z,101726.52
2019-01-11T14:04:43.067Z,101725.14
2019-01-11T14:07:13.470Z,101721.55
2019-01-11T14:09:43.914Z,101716.77
2019-01-11T14:12:14.353Z,101715.50
2019-01-11T14:14:47.040Z,101718.00
2019-01-11T14:17:17.596Z,101714.11
2019-01-11T14:19:48.116Z,101708.48
2019-01-11T14:22:20.562Z,101704.03
2019-01-11T14:24:51.232Z,101707.00
2019-01-11T14:27:21.699Z,101710.39
2019-01-11T14:29:52.467Z,101712.50
2019-01-11T14:32:22.856Z,101714.64
2019-01-11T14:34:54.636Z,101711.52
2019-01-11T14:37:24.963Z,101720.52
2019-01-11T14:39:55.364Z,101715.33
2019-01-11T14:42:25.718Z,101718.28
2019-01-11T14:44:56.095Z,101720.01
2019-01-11T14:47:26.452Z,101723.42
2019-01-11T14:49:57.010Z,101721.13
2019-01-11T14:52:27.460Z,101716.37
2019-01-11T14:54:58.369Z,101717.58
2019-01-11T14:57:28.704Z,101717.05
2019-01-11T14:59:59.061Z,101718.36
2019-01-11T15:02:29.474Z,101717.78
2019-01-11T15:04:59.894Z,101714.70
2019-01-11T15:07:31.717Z,101715.13
2019-01-11T15:10:04.920Z,101718.25
2019-01-11T15:12:35.256Z,101716.36
2019-01-11T15:15:06.758Z,101728.11
2019-01-11T15:17:37.204Z,101728.05
2019-01-11T15:20:10.214Z,101730.39
2019-01-11T15:22:40.959Z,101728.55
2019-01-11T15:25:12.573Z,101726.88
2019-01-11T15:27:42.999Z,101726.73
2019-01-11T15:30:19.354Z,101734.56
2019-01-11T15:32:51.775Z,101739.05
2019-01-11T15:35:22.250Z,101737.27
2019-01-11T15:37:52.620Z,101737.30
2019-01-11T15:40:36.920Z,101733.25
2019-01-11T15:43:06.781Z,101731.52
2019-01-11T15:45:37.131Z,101732.87
2019-01-11T15:48:07.591Z,101729.86
2019-01-11T15:50:57.709Z,101728.05
2019-01-11T15:53:34.919Z,101722.72
2019-01-11T15:56:07.293Z,101722.69
2019-01-11T15:58:37.664Z,101720.12
2019-01-11T16:01:08.053Z,101726.22
2019-01-11T16:03:38.509Z,101731.13
2019-01-11T16:06:32.162Z,101724.84
2019-01-11T16:09:56.057Z,101724.94
2019-01-11T16:12:44.317Z,101719.73
2019-01-11T16:15:44.812Z,101721.87
2019-01-11T16:18:28.027Z,101723.16
2019-01-11T16:21:01.478Z,101715.36
2019-01-11T16:23:32.172Z,101720.03
2019-01-11T16:26:02.693Z,101717.02
2019-01-11T16:28:33.478Z,101722.72
2019-01-11T16:31:04.186Z,101725.34
2019-01-11T16:33:34.631Z,101726.51
2019-01-11T16:36:08.399Z,101726.59
2019-01-11T16:38:38.959Z,101729.66
2019-01-11T16:41:15.086Z,101725.72
2019-01-11T16:43:45.967Z,101721.72
2019-01-11T16:46:16.449Z,101726.92
2019-01-11T16:48:49.174Z,101729.23
2019-01-11T16:51:20.075Z,101730.56
2019-01-11T16:53:50.984Z,101726.13
2019-01-11T16:56:21.515Z,101736.81
2019-01-11T16:58:52.026Z,101742.84
2019-01-11T17:01:22.396Z,101748.08
2019-01-11T17:03:53.096Z,101747.25
2019-01-11T17:06:23.573Z,101753.41
2019-01-11T17:08:54.040Z,101748.98
2019-01-11T17:11:24.462Z,101759.63
2019-01-11T17:13:56.268Z,101751.69
2019-01-11T17:16:27.919Z,101752.19
2019-01-11T17:18:58.306Z,101754.23
2019-01-11T17:21:29.545Z,101752.56
2019-01-11T17:24:00.387Z,101749.06
2019-01-11T17:26:31.003Z,101756.33
2019-01-11T17:29:03.874Z,101756.86
2019-01-11T17:31:48.074Z,101758.55
2019-01-11T17:34:20.425Z,101765.99
2019-01-11T17:36:53.374Z,101762.98
2019-01-11T17:39:25.930Z,101767.91
2019-01-11T17:42:17.690Z,101769.55
2019-01-11T17:44:50.211Z,101766.98
2019-01-11T17:47:20.979Z,101772.17
2019-01-11T17:49:51.453Z,101768.41
2019-01-11T17:52:21.880Z,101773.60
2019-01-11T17:54:52.367Z,101768.67
2019-01-11T17:57:22.917Z,101774.83
2019-01-11T17:59:53.385Z,101776.50
2019-01-11T18:02:24.264Z,101779.67
2019-01-11T18:04:57.373Z,101779.27
2019-01-11T18:07:28.185Z,101779.61
2019-01-11T18:10:01.650Z,101779.76
2019-01-11T18:12:33.994Z,101787.61
2019-01-11T18:15:06.084Z,101785.36
2019-01-11T18:17:37.571Z,101776.64
2019-01-11T18:20:12.356Z,101789.82
2019-01-11T18:22:46.539Z,101780.14
2019-01-11T18:25:19.372Z,101790.31
2019-01-11T18:27:49.923Z,101794.61
2019-01-11T18:30:20.548Z,101790.75
2019-01-11T18:32:51.076Z,101794.83
2019-01-11T18:35:21.672Z,101792.25
2019-01-11T18:37:52.307Z,101796.98
2019-01-11T18:40:24.244Z,101791.76
2019-01-11T18:42:54.671Z,101797.91
2019-01-11T18:45:28.738Z,101795.67
2019-01-11T18:47:57.524Z,101802.31
2019-01-11T18:50:28.412Z,101803.58
2019-01-11T18:52:58.914Z,101808.91
2019-01-11T18:55:29.490Z,101804.13
2019-01-11T18:58:00.077Z,101810.98
2019-01-11T19:00:30.537Z,101810.66
2019-01-11T19:03:01.239Z,101809.73
2019-01-11T19:05:31.847Z,101810.61
2019-01-11T19:08:07.919Z,101812.79
2019-01-11T19:10:39.662Z,101815.39
2019-01-11T19:13:10.406Z,101811.30
2019-01-11T19:15:42.909Z,101816.19
2019-01-11T19:18:13.833Z,101814.30
2019-01-11T19:20:44.300Z,101817.94
2019-01-11T19:23:20.431Z,101813.17
2019-01-11T19:25:47.878Z,101818.24
2019-01-11T19:28:18.304Z,101820.02
2019-01-11T19:30:49.023Z,101808.31
2019-01-11T19:33:21.824Z,101817.09
2019-01-11T19:35:55.145Z,101817.20
2019-01-11T19:38:25.627Z,101820.28
2019-01-11T19:40:56.171Z,101821.64
2019-01-11T19:43:26.551Z,101817.34
2019-01-11T19:45:56.920Z,101820.33
2019-01-11T19:48:27.416Z,101816.06
2019-01-11T19:51:01.038Z,101821.72
2019-01-11T19:53:31.899Z,101822.05
2019-01-11T19:56:02.311Z,101813.36
2019-01-11T19:58:32.853Z,101819.98
2019-01-11T20:01:03.406Z,101823.37
2019-01-11T20:03:34.145Z,101820.38
2019-01-11T20:06:04.619Z,101826.87
2019-01-11T20:08:35.303Z,101823.31
2019-01-11T20:11:07.794Z,101822.45
2019-01-11T20:13:38.274Z,101820.31
2019-01-11T20:16:08.661Z,101815.96
2019-01-11T20:18:39.071Z,101816.40
2019-01-11T20:21:09.488Z,101820.36
2019-01-11T20:23:39.860Z,101821.70
2019-01-11T20:26:10.325Z,101828.19
2019-01-11T20:28:40.676Z,101827.30
2019-01-11T20:31:11.015Z,101830.83
2019-01-11T20:33:41.927Z,101829.86
2019-01-11T20:36:13.166Z,101837.86
2019-01-11T20:38:43.680Z,101839.68
2019-01-11T20:41:14.134Z,101830.94
2019-01-11T20:43:44.584Z,101831.80
2019-01-11T20:46:15.155Z,101835.81
2019-01-11T20:48:45.535Z,101830.33
2019-01-11T20:51:16.206Z,101832.85
2019-01-11T20:53:46.726Z,101827.66
2019-01-11T20:56:17.509Z,101831.93
2019-01-11T20:58:48.111Z,101829.50
2019-01-11T21:01:18.830Z,101834.60
2019-01-11T21:03:49.201Z,101825.44
2019-01-11T21:06:19.616Z,101831.64
2019-01-11T21:08:53.395Z,101826.44
2019-01-11T21:11:25.922Z,101832.14
2019-01-11T21:13:58.475Z,101829.93
2019-01-11T21:16:28.927Z,101835.65
2019-01-11T21:18:59.366Z,101839.03
2019-01-11T21:21:30.067Z,101835.62
2019-01-11T21:24:00.443Z,101839.99
2019-01-11T21:26:30.914Z,101838.30
2019-01-11T21:29:01.314Z,101835.98
2019-01-11T21:31:31.893Z,101837.44
2019-01-11T21:34:02.393Z,101841.78
2019-01-11T21:36:32.973Z,101846.08
2019-01-11T21:39:03.476Z,101846.55
2019-01-11T21:41:33.895Z,101842.99
2019-01-11T21:44:06.918Z,101844.72
2019-01-11T21:46:37.298Z,101849.08
2019-01-11T21:49:07.892Z,101855.73
2019-01-11T21:51:38.369Z,101854.41
2019-01-11T21:54:09.091Z,101854.81
2019-01-11T21:56:42.529Z,101850.87
2019-01-11T21:59:12.996Z,101856.59
2019-01-11T22:01:43.374Z,101856.05
2019-01-11T22:04:13.950Z,101859.81
2019-01-11T22:06:44.383Z,101850.84
2019-01-11T22:09:14.765Z,101852.12
2019-01-11T22:11:45.425Z,101853.84
2019-01-11T22:14:16.024Z,101860.73
2019-01-11T22:16:46.657Z,101857.69
2019-01-11T22:19:17.225Z,101858.62
2019-01-11T22:21:47.777Z,101854.63
2019-01-11T22:24:18.244Z,101857.72
2019-01-11T22:26:48.646Z,101857.23
2019-01-11T22:29:19.376Z,101856.06
2019-01-11T22:31:50.244Z,101855.53
2019-01-11T22:34:20.631Z,101857.37
2019-01-11T22:36:51.010Z,101858.59
2019-01-11T22:39:21.363Z,101852.63
2019-01-11T22:41:51.839Z,101855.72
2019-01-11T22:44:22.170Z,101855.77
2019-01-11T22:46:54.886Z,101851.39
2019-01-11T22:49:25.238Z,101853.57
2019-01-11T22:51:55.672Z,101852.28
2019-01-11T22:54:26.049Z,101844.41
2019-01-11T22:56:56.471Z,101843.17
2019-01-11T22:59:30.143Z,101840.52
2019-01-11T23:02:10.733Z,101838.80
2019-01-11T23:04:41.072Z,101836.52
2019-01-11T23:07:26.592Z,101840.88
2019-01-11T23:10:00.579Z,101842.59
2019-01-11T23:13:09.368Z,101841.35
2019-01-11T23:15:42.364Z,101845.62
2019-01-11T23:18:15.092Z,101846.92
2019-01-11T23:20:45.959Z,101844.83
2019-01-11T23:23:16.321Z,101849.61
2019-01-11T23:25:46.675Z,101843.08
2019-01-11T23:28:17.006Z,101847.87
2019-01-11T23:30:47.360Z,101851.25
2019-01-11T23:33:19.871Z,101845.62
2019-01-11T23:35:50.285Z,101844.36
2019-01-11T23:38:20.732Z,101849.56
2019-01-11T23:40:51.260Z,101859.58
2019-01-11T23:43:21.700Z,101850.13
2019-01-11T23:45:52.826Z,101849.66
2019-01-11T23:48:23.262Z,101848.86
2019-01-11T23:50:53.865Z,101859.79
2019-01-11T23:53:24.246Z,101859.67
2019-01-11T23:55:56.031Z,101856.23
2019-01-11T23:58:26.427Z,101853.73
